sensor_id;sensor_type;location;lat;lon;timestamp;pressure;altitude;pressure_sealevel;temperature;humidity
85735;BME280;76179;42.316;22.856;2024-02-14T00:00:11;94053.88;;;5.21;65.49
85735;BME280;76179;42.316;22.856;2024-02-14T00:02:45;94069.63;;;5.26;65.34
85735;BME280;76179;42.316;22.856;2024-02-14T00:05:11;94053.88;;;5.21;64.86
85735;BME280;76179;42.316;22.856;2024-02-14T00:07:37;94046.06;;;5.30;63.83
85735;BME280;76179;42.316;22.856;2024-02-14T00:10:03;94025.03;;;5.18;64.45
85735;BME280;76179;42.316;22.856;2024-02-14T00:12:32;94068.41;;;5.31;65.10
85735;BME280;76179;42.316;22.856;2024-02-14T00:14:57;94064.25;;;5.26;65.42
85735;BME280;76179;42.316;22.856;2024-02-14T00:17:23;94039.31;;;5.15;64.41
85735;BME280;76179;42.316;22.856;2024-02-14T00:19:48;94070.06;;;5.21;64.24
85735;BME280;76179;42.316;22.856;2024-02-14T00:22:14;94068.09;;;5.25;65.54
85735;BME280;76179;42.316;22.856;2024-02-14T00:24:39;94050.88;;;5.16;64.63
85735;BME280;76179;42.316;22.856;2024-02-14T00:27:05;94065.16;;;5.13;65.16
85735;BME280;76179;42.316;22.856;2024-02-14T00:29:31;94054.38;;;5.13;65.15
85735;BME280;76179;42.316;22.856;2024-02-14T00:31:59;94060.22;;;5.08;65.36
85735;BME280;76179;42.316;22.856;2024-02-14T00:34:25;94054.75;;;5.11;66.51
85735;BME280;76179;42.316;22.856;2024-02-14T00:36:50;94021.97;;;4.82;67.55
85735;BME280;76179;42.316;22.856;2024-02-14T00:39:16;94039.88;;;4.99;67.17
85735;BME280;76179;42.316;22.856;2024-02-14T00:41:41;94069.47;;;5.07;65.39
85735;BME280;76179;42.316;22.856;2024-02-14T00:44:07;94062.22;;;5.00;66.03
85735;BME280;76179;42.316;22.856;2024-02-14T00:46:33;94045.72;;;4.94;67.46
85735;BME280;76179;42.316;22.856;2024-02-14T00:48:59;94021.25;;;4.78;67.14
85735;BME280;76179;42.316;22.856;2024-02-14T00:51:26;94038.47;;;4.88;68.96
85735;BME280;76179;42.316;22.856;2024-02-14T00:53:52;94057.38;;;4.84;68.47
85735;BME280;76179;42.316;22.856;2024-02-14T00:56:17;94030.97;;;4.72;67.97
85735;BME280;76179;42.316;22.856;2024-02-14T00:58:43;94032.47;;;4.73;68.09
85735;BME280;76179;42.316;22.856;2024-02-14T01:01:08;94040.47;;;4.80;68.93
85735;BME280;76179;42.316;22.856;2024-02-14T01:03:34;93990.41;;;4.45;69.02
85735;BME280;76179;42.316;22.856;2024-02-14T01:05:59;94040.78;;;4.52;69.71
85735;BME280;76179;42.316;22.856;2024-02-14T01:08:25;94046.06;;;4.62;69.50
85735;BME280;76179;42.316;22.856;2024-02-14T01:10:50;94023.81;;;4.55;70.64
85735;BME280;76179;42.316;22.856;2024-02-14T01:13:17;94065.09;;;4.48;71.11
85735;BME280;76179;42.316;22.856;2024-02-14T01:15:43;94033.44;;;4.56;70.70
85735;BME280;76179;42.316;22.856;2024-02-14T01:18:09;94021.06;;;4.58;70.31
85735;BME280;76179;42.316;22.856;2024-02-14T01:20:35;94031.53;;;4.53;70.75
85735;BME280;76179;42.316;22.856;2024-02-14T01:23:00;94045.09;;;4.46;70.57
85735;BME280;76179;42.316;22.856;2024-02-14T01:25:26;94029.31;;;4.44;71.01
85735;BME280;76179;42.316;22.856;2024-02-14T01:27:51;94030.06;;;4.48;70.81
85735;BME280;76179;42.316;22.856;2024-02-14T01:30:18;94035.09;;;4.43;69.91
85735;BME280;76179;42.316;22.856;2024-02-14T01:32:43;94058.94;;;4.48;70.79
85735;BME280;76179;42.316;22.856;2024-02-14T01:35:09;94053.50;;;4.51;70.66
85735;BME280;76179;42.316;22.856;2024-02-14T01:37:35;94060.16;;;4.40;70.94
85735;BME280;76179;42.316;22.856;2024-02-14T01:40:00;94066.25;;;4.44;71.09
85735;BME280;76179;42.316;22.856;2024-02-14T01:42:26;94064.78;;;4.39;71.51
85735;BME280;76179;42.316;22.856;2024-02-14T01:44:53;94062.84;;;4.40;71.82
85735;BME280;76179;42.316;22.856;2024-02-14T01:47:20;94045.09;;;4.42;70.19
85735;BME280;76179;42.316;22.856;2024-02-14T01:49:46;94063.16;;;4.49;69.00
85735;BME280;76179;42.316;22.856;2024-02-14T01:52:12;94041.25;;;4.43;69.49
85735;BME280;76179;42.316;22.856;2024-02-14T01:54:39;94047.56;;;4.26;69.24
85735;BME280;76179;42.316;22.856;2024-02-14T01:57:05;94069.59;;;4.58;68.65
85735;BME280;76179;42.316;22.856;2024-02-14T01:59:32;94082.75;;;4.53;69.08
85735;BME280;76179;42.316;22.856;2024-02-14T02:02:00;94061.50;;;4.58;69.20
85735;BME280;76179;42.316;22.856;2024-02-14T02:04:25;94067.34;;;4.53;67.44
85735;BME280;76179;42.316;22.856;2024-02-14T02:06:50;94101.94;;;4.58;69.25
85735;BME280;76179;42.316;22.856;2024-02-14T02:09:22;94071.50;;;4.61;69.25
85735;BME280;76179;42.316;22.856;2024-02-14T02:11:52;94049.69;;;4.45;67.14
85735;BME280;76179;42.316;22.856;2024-02-14T02:14:21;94080.34;;;4.62;67.29
85735;BME280;76179;42.316;22.856;2024-02-14T02:16:51;94112.94;;;4.75;65.79
85735;BME280;76179;42.316;22.856;2024-02-14T02:19:17;94061.84;;;4.64;66.15
85735;BME280;76179;42.316;22.856;2024-02-14T02:21:42;94075.94;;;4.79;65.22
85735;BME280;76179;42.316;22.856;2024-02-14T02:24:11;94076.03;;;4.72;64.85
85735;BME280;76179;42.316;22.856;2024-02-14T02:26:37;94086.00;;;4.75;65.63
85735;BME280;76179;42.316;22.856;2024-02-14T02:29:02;94107.53;;;4.78;66.46
85735;BME280;76179;42.316;22.856;2024-02-14T02:31:28;94109.06;;;4.79;65.47
85735;BME280;76179;42.316;22.856;2024-02-14T02:33:54;94110.22;;;4.78;66.28
85735;BME280;76179;42.316;22.856;2024-02-14T02:36:19;94108.69;;;4.77;65.56
85735;BME280;76179;42.316;22.856;2024-02-14T02:38:44;94126.75;;;4.80;64.97
85735;BME280;76179;42.316;22.856;2024-02-14T02:41:10;94126.41;;;4.78;62.72
85735;BME280;76179;42.316;22.856;2024-02-14T02:43:35;94110.56;;;4.80;65.68
85735;BME280;76179;42.316;22.856;2024-02-14T02:46:01;94139.69;;;4.96;64.44
85735;BME280;76179;42.316;22.856;2024-02-14T02:48:27;94133.25;;;4.86;66.02
85735;BME280;76179;42.316;22.856;2024-02-14T02:50:53;94111.06;;;4.72;67.08
85735;BME280;76179;42.316;22.856;2024-02-14T02:53:18;94146.03;;;4.79;66.81
85735;BME280;76179;42.316;22.856;2024-02-14T02:55:44;94139.56;;;4.69;67.59
85735;BME280;76179;42.316;22.856;2024-02-14T02:58:10;94143.13;;;4.59;68.23
85735;BME280;76179;42.316;22.856;2024-02-14T03:00:36;94125.88;;;4.49;69.54
85735;BME280;76179;42.316;22.856;2024-02-14T03:03:01;94146.97;;;4.58;68.93
85735;BME280;76179;42.316;22.856;2024-02-14T03:05:29;94160.13;;;4.52;69.81
85735;BME280;76179;42.316;22.856;2024-02-14T03:07:58;94124.56;;;4.20;70.84
85735;BME280;76179;42.316;22.856;2024-02-14T03:10:25;94159.09;;;4.36;69.75
85735;BME280;76179;42.316;22.856;2024-02-14T03:12:51;94159.47;;;4.38;70.18
85735;BME280;76179;42.316;22.856;2024-02-14T03:15:17;94185.13;;;4.56;69.60
85735;BME280;76179;42.316;22.856;2024-02-14T03:17:44;94170.13;;;4.55;68.36
85735;BME280;76179;42.316;22.856;2024-02-14T03:20:10;94170.06;;;4.59;67.90
85735;BME280;76179;42.316;22.856;2024-02-14T03:22:42;94202.72;;;4.72;67.73
85735;BME280;76179;42.316;22.856;2024-02-14T03:25:17;94166.56;;;4.65;68.45
85735;BME280;76179;42.316;22.856;2024-02-14T03:27:43;94189.63;;;4.70;67.75
85735;BME280;76179;42.316;22.856;2024-02-14T03:30:12;94191.47;;;4.80;67.17
85735;BME280;76179;42.316;22.856;2024-02-14T03:32:38;94183.41;;;4.77;66.52
85735;BME280;76179;42.316;22.856;2024-02-14T03:35:04;94194.84;;;4.91;67.00
85735;BME280;76179;42.316;22.856;2024-02-14T03:37:29;94216.59;;;5.11;65.85
85735;BME280;76179;42.316;22.856;2024-02-14T03:39:54;94211.19;;;5.15;65.41
85735;BME280;76179;42.316;22.856;2024-02-14T03:42:20;94209.72;;;5.07;64.78
85735;BME280;76179;42.316;22.856;2024-02-14T03:44:45;94227.25;;;5.29;65.36
85735;BME280;76179;42.316;22.856;2024-02-14T03:47:12;94207.72;;;5.14;65.82
85735;BME280;76179;42.316;22.856;2024-02-14T03:49:38;94212.75;;;5.12;65.51
85735;BME280;76179;42.316;22.856;2024-02-14T03:52:06;94217.72;;;5.17;65.32
85735;BME280;76179;42.316;22.856;2024-02-14T03:54:35;94201.31;;;5.01;64.86
85735;BME280;76179;42.316;22.856;2024-02-14T03:57:02;94224.75;;;5.08;64.42
85735;BME280;76179;42.316;22.856;2024-02-14T03:59:27;94205.63;;;4.88;65.32
85735;BME280;76179;42.316;22.856;2024-02-14T04:01:53;94230.66;;;4.95;64.58
85735;BME280;76179;42.316;22.856;2024-02-14T04:04:19;94214.50;;;4.88;63.97
85735;BME280;76179;42.316;22.856;2024-02-14T04:06:44;94226.03;;;4.92;63.33
85735;BME280;76179;42.316;22.856;2024-02-14T04:09:11;94236.78;;;4.96;63.69
85735;BME280;76179;42.316;22.856;2024-02-14T04:11:36;94231.69;;;5.05;64.01
85735;BME280;76179;42.316;22.856;2024-02-14T04:14:02;94238.94;;;5.15;64.50
85735;BME280;76179;42.316;22.856;2024-02-14T04:16:27;94241.38;;;5.02;62.94
85735;BME280;76179;42.316;22.856;2024-02-14T04:18:53;94228.66;;;5.03;62.83
85735;BME280;76179;42.316;22.856;2024-02-14T04:21:20;94223.34;;;4.89;63.80
85735;BME280;76179;42.316;22.856;2024-02-14T04:23:45;94232.97;;;4.93;61.51
85735;BME280;76179;42.316;22.856;2024-02-14T04:26:19;94218.31;;;4.94;63.28
85735;BME280;76179;42.316;22.856;2024-02-14T04:28:44;94204.13;;;4.87;64.43
85735;BME280;76179;42.316;22.856;2024-02-14T04:31:09;94223.25;;;5.03;64.19
85735;BME280;76179;42.316;22.856;2024-02-14T04:33:35;94237.53;;;5.00;61.45
85735;BME280;76179;42.316;22.856;2024-02-14T04:36:00;94229.81;;;5.02;60.81
85735;BME280;76179;42.316;22.856;2024-02-14T04:38:26;94231.34;;;5.03;62.21
85735;BME280;76179;42.316;22.856;2024-02-14T04:40:51;94226.38;;;4.98;63.66
85735;BME280;76179;42.316;22.856;2024-02-14T04:43:17;94235.97;;;5.02;63.62
85735;BME280;76179;42.316;22.856;2024-02-14T04:45:43;94221.81;;;4.91;62.70
85735;BME280;76179;42.316;22.856;2024-02-14T04:48:08;94231.50;;;4.82;64.00
85735;BME280;76179;42.316;22.856;2024-02-14T04:50:34;94239.47;;;4.99;62.27
85735;BME280;76179;42.316;22.856;2024-02-14T04:52:59;94239.13;;;4.94;62.38
85735;BME280;76179;42.316;22.856;2024-02-14T04:55:24;94234.44;;;5.01;62.25
85735;BME280;76179;42.316;22.856;2024-02-14T04:57:50;94245.69;;;4.89;63.74
85735;BME280;76179;42.316;22.856;2024-02-14T05:00:15;94239.97;;;4.84;62.74
85735;BME280;76179;42.316;22.856;2024-02-14T05:02:41;94206.31;;;4.51;64.20
85735;BME280;76179;42.316;22.856;2024-02-14T05:05:06;94257.00;;;4.74;63.15
85735;BME280;76179;42.316;22.856;2024-02-14T05:07:33;94248.94;;;4.70;63.39
85735;BME280;76179;42.316;22.856;2024-02-14T05:09:59;94242.78;;;4.66;63.12
85735;BME280;76179;42.316;22.856;2024-02-14T05:12:24;94254.72;;;4.65;64.28
85735;BME280;76179;42.316;22.856;2024-02-14T05:14:50;94259.03;;;4.59;63.29
85735;BME280;76179;42.316;22.856;2024-02-14T05:17:15;94222.59;;;4.40;62.58
85735;BME280;76179;42.316;22.856;2024-02-14T05:19:42;94287.72;;;4.87;62.56
85735;BME280;76179;42.316;22.856;2024-02-14T05:22:08;94275.75;;;4.88;63.44
85735;BME280;76179;42.316;22.856;2024-02-14T05:24:33;94288.53;;;4.80;63.33
85735;BME280;76179;42.316;22.856;2024-02-14T05:27:00;94280.16;;;4.68;62.79
85735;BME280;76179;42.316;22.856;2024-02-14T05:29:26;94291.25;;;4.73;62.01
85735;BME280;76179;42.316;22.856;2024-02-14T05:31:51;94272.53;;;4.55;63.86
85735;BME280;76179;42.316;22.856;2024-02-14T05:34:20;94294.44;;;4.64;61.77
85735;BME280;76179;42.316;22.856;2024-02-14T05:36:46;94294.78;;;4.67;62.48
85735;BME280;76179;42.316;22.856;2024-02-14T05:39:11;94281.31;;;4.67;63.80
85735;BME280;76179;42.316;22.856;2024-02-14T05:41:37;94316.00;;;4.64;62.12
85735;BME280;76179;42.316;22.856;2024-02-14T05:44:02;94313.69;;;4.63;61.42
85735;BME280;76179;42.316;22.856;2024-02-14T05:46:28;94316.28;;;4.74;62.05
85735;BME280;76179;42.316;22.856;2024-02-14T05:48:54;94310.19;;;4.66;61.83
85735;BME280;76179;42.316;22.856;2024-02-14T05:51:20;94300.59;;;4.61;62.66
85735;BME280;76179;42.316;22.856;2024-02-14T05:53:46;94325.16;;;4.74;62.48
85735;BME280;76179;42.316;22.856;2024-02-14T05:56:11;94321.78;;;4.63;60.95
85735;BME280;76179;42.316;22.856;2024-02-14T05:58:36;94322.44;;;4.78;62.00
85735;BME280;76179;42.316;22.856;2024-02-14T06:01:02;94333.22;;;4.78;61.33
85735;BME280;76179;42.316;22.856;2024-02-14T06:03:27;94329.00;;;4.77;61.40
85735;BME280;76179;42.316;22.856;2024-02-14T06:05:53;94315.53;;;4.77;61.45
85735;BME280;76179;42.316;22.856;2024-02-14T06:08:20;94335.97;;;4.67;59.30
85735;BME280;76179;42.316;22.856;2024-02-14T06:10:45;94328.72;;;4.60;60.60
85735;BME280;76179;42.316;22.856;2024-02-14T06:13:11;94336.03;;;4.60;59.18
85735;BME280;76179;42.316;22.856;2024-02-14T06:15:36;94357.50;;;4.74;60.65
85735;BME280;76179;42.316;22.856;2024-02-14T06:18:01;94355.59;;;4.75;61.18
85735;BME280;76179;42.316;22.856;2024-02-14T06:20:27;94342.94;;;4.64;60.76
85735;BME280;76179;42.316;22.856;2024-02-14T06:22:52;94370.22;;;4.74;60.44
85735;BME280;76179;42.316;22.856;2024-02-14T06:25:18;94363.31;;;4.65;60.87
85735;BME280;76179;42.316;22.856;2024-02-14T06:27:43;94355.28;;;4.58;60.91
85735;BME280;76179;42.316;22.856;2024-02-14T06:30:09;94378.34;;;4.70;60.95
85735;BME280;76179;42.316;22.856;2024-02-14T06:32:35;94374.09;;;4.69;61.06
85735;BME280;76179;42.316;22.856;2024-02-14T06:35:00;94387.13;;;4.85;60.80
85735;BME280;76179;42.316;22.856;2024-02-14T06:37:25;94380.19;;;4.80;60.12
85735;BME280;76179;42.316;22.856;2024-02-14T06:39:51;94395.22;;;4.85;59.79
85735;BME280;76179;42.316;22.856;2024-02-14T06:42:17;94385.53;;;4.91;58.98
85735;BME280;76179;42.316;22.856;2024-02-14T06:44:42;94392.88;;;4.87;60.01
85735;BME280;76179;42.316;22.856;2024-02-14T06:47:08;94365.63;;;4.67;60.89
85735;BME280;76179;42.316;22.856;2024-02-14T06:49:33;94376.03;;;4.72;60.09
85735;BME280;76179;42.316;22.856;2024-02-14T06:51:59;94384.81;;;4.83;59.79
85735;BME280;76179;42.316;22.856;2024-02-14T06:54:24;94384.06;;;4.79;61.01
85735;BME280;76179;42.316;22.856;2024-02-14T06:56:49;94391.69;;;4.95;59.10
85735;BME280;76179;42.316;22.856;2024-02-14T06:59:15;94379.41;;;4.83;59.38
85735;BME280;76179;42.316;22.856;2024-02-14T07:01:40;94389.38;;;4.93;58.86
85735;BME280;76179;42.316;22.856;2024-02-14T07:04:06;94396.28;;;4.98;59.01
85735;BME280;76179;42.316;22.856;2024-02-14T07:06:31;94401.28;;;5.03;57.34
85735;BME280;76179;42.316;22.856;2024-02-14T07:08:57;94412.75;;;5.18;58.55
85735;BME280;76179;42.316;22.856;2024-02-14T07:11:22;94400.41;;;5.13;57.24
85735;BME280;76179;42.316;22.856;2024-02-14T07:13:49;94415.44;;;5.14;57.40
85735;BME280;76179;42.316;22.856;2024-02-14T07:16:14;94413.81;;;5.31;56.91
85735;BME280;76179;42.316;22.856;2024-02-14T07:18:40;94417.66;;;5.30;55.85
85735;BME280;76179;42.316;22.856;2024-02-14T07:21:06;94418.38;;;5.41;56.50
85735;BME280;76179;42.316;22.856;2024-02-14T07:23:32;94433.78;;;5.40;58.33
85735;BME280;76179;42.316;22.856;2024-02-14T07:25:59;94430.69;;;5.42;58.29
85735;BME280;76179;42.316;22.856;2024-02-14T07:28:26;94429.94;;;5.38;55.49
85735;BME280;76179;42.316;22.856;2024-02-14T07:30:51;94451.88;;;5.47;56.17
85735;BME280;76179;42.316;22.856;2024-02-14T07:33:16;94425.25;;;5.46;55.22
85735;BME280;76179;42.316;22.856;2024-02-14T07:35:42;94433.66;;;5.58;55.16
85735;BME280;76179;42.316;22.856;2024-02-14T07:38:08;94431.81;;;5.45;56.13
85735;BME280;76179;42.316;22.856;2024-02-14T07:40:33;94425.53;;;5.62;57.32
85735;BME280;76179;42.316;22.856;2024-02-14T07:42:59;94446.22;;;5.79;57.96
85735;BME280;76179;42.316;22.856;2024-02-14T07:45:25;94444.38;;;5.69;55.40
85735;BME280;76179;42.316;22.856;2024-02-14T07:47:50;94450.50;;;5.76;57.84
85735;BME280;76179;42.316;22.856;2024-02-14T07:50:16;94449.38;;;5.70;56.25
85735;BME280;76179;42.316;22.856;2024-02-14T07:52:43;94463.66;;;5.67;58.07
85735;BME280;76179;42.316;22.856;2024-02-14T07:55:09;94451.09;;;5.47;57.50
85735;BME280;76179;42.316;22.856;2024-02-14T07:57:37;94454.50;;;5.54;57.76
85735;BME280;76179;42.316;22.856;2024-02-14T08:00:05;94473.31;;;5.68;57.17
85735;BME280;76179;42.316;22.856;2024-02-14T08:02:30;94450.31;;;5.50;56.84
85735;BME280;76179;42.316;22.856;2024-02-14T08:04:56;94478.72;;;5.68;57.74
85735;BME280;76179;42.316;22.856;2024-02-14T08:07:21;94467.19;;;5.61;56.92
85735;BME280;76179;42.316;22.856;2024-02-14T08:09:46;94464.88;;;5.59;57.39
85735;BME280;76179;42.316;22.856;2024-02-14T08:12:12;94479.91;;;5.64;57.35
85735;BME280;76179;42.316;22.856;2024-02-14T08:14:38;94461.91;;;5.47;58.70
85735;BME280;76179;42.316;22.856;2024-02-14T08:17:03;94478.13;;;5.39;56.65
85735;BME280;76179;42.316;22.856;2024-02-14T08:19:29;94487.00;;;5.40;57.18
85735;BME280;76179;42.316;22.856;2024-02-14T08:21:54;94492.75;;;5.42;56.67
85735;BME280;76179;42.316;22.856;2024-02-14T08:24:25;94481.28;;;5.31;57.90
85735;BME280;76179;42.316;22.856;2024-02-14T08:26:50;94493.94;;;5.41;56.03
85735;BME280;76179;42.316;22.856;2024-02-14T08:29:16;94491.25;;;5.37;55.48
85735;BME280;76179;42.316;22.856;2024-02-14T08:31:41;94471.66;;;5.26;57.04
85735;BME280;76179;42.316;22.856;2024-02-14T08:34:06;94501.22;;;5.48;56.38
85735;BME280;76179;42.316;22.856;2024-02-14T08:36:33;94493.94;;;5.41;56.13
85735;BME280;76179;42.316;22.856;2024-02-14T08:39:00;94502.09;;;5.30;55.93
85735;BME280;76179;42.316;22.856;2024-02-14T08:41:26;94505.91;;;5.40;56.34
85735;BME280;76179;42.316;22.856;2024-02-14T08:43:51;94492.84;;;5.28;56.06
85735;BME280;76179;42.316;22.856;2024-02-14T08:46:17;94500.88;;;5.38;56.68
85735;BME280;76179;42.316;22.856;2024-02-14T08:48:43;94509.34;;;5.44;56.82
85735;BME280;76179;42.316;22.856;2024-02-14T08:51:12;94492.06;;;5.27;56.46
85735;BME280;76179;42.316;22.856;2024-02-14T08:53:38;94522.44;;;5.49;55.87
85735;BME280;76179;42.316;22.856;2024-02-14T08:56:04;94507.41;;;5.45;54.89
85735;BME280;76179;42.316;22.856;2024-02-14T08:58:29;94522.00;;;5.51;55.99
85735;BME280;76179;42.316;22.856;2024-02-14T09:00:55;94523.50;;;5.59;55.15
85735;BME280;76179;42.316;22.856;2024-02-14T09:03:20;94517.81;;;5.50;54.54
85735;BME280;76179;42.316;22.856;2024-02-14T09:05:45;94530.16;;;5.47;55.78
85735;BME280;76179;42.316;22.856;2024-02-14T09:08:12;94536.28;;;5.55;55.59
85735;BME280;76179;42.316;22.856;2024-02-14T09:10:38;94539.75;;;5.55;55.18
85735;BME280;76179;42.316;22.856;2024-02-14T09:13:04;94513.63;;;5.34;53.57
85735;BME280;76179;42.316;22.856;2024-02-14T09:15:29;94550.16;;;5.53;53.78
85735;BME280;76179;42.316;22.856;2024-02-14T09:17:56;94537.03;;;5.55;53.92
85735;BME280;76179;42.316;22.856;2024-02-14T09:20:22;94543.94;;;5.63;54.07
85735;BME280;76179;42.316;22.856;2024-02-14T09:22:48;94548.94;;;5.65;52.79
85735;BME280;76179;42.316;22.856;2024-02-14T09:25:13;94530.06;;;5.58;53.18
85735;BME280;76179;42.316;22.856;2024-02-14T09:27:39;94563.56;;;5.67;53.65
85735;BME280;76179;42.316;22.856;2024-02-14T09:30:06;94551.28;;;5.59;53.17
85735;BME280;76179;42.316;22.856;2024-02-14T09:32:32;94550.97;;;5.47;53.78
85735;BME280;76179;42.316;22.856;2024-02-14T09:35:01;94559.47;;;5.45;54.09
85735;BME280;76179;42.316;22.856;2024-02-14T09:37:28;94534.84;;;5.29;54.46
85735;BME280;76179;42.316;22.856;2024-02-14T09:39:54;94560.34;;;5.24;53.61
85735;BME280;76179;42.316;22.856;2024-02-14T09:42:38;94542.53;;;5.37;54.39
85735;BME280;76179;42.316;22.856;2024-02-14T09:45:06;94557.94;;;5.37;54.94
85735;BME280;76179;42.316;22.856;2024-02-14T09:47:33;94577.63;;;5.37;55.47
85735;BME280;76179;42.316;22.856;2024-02-14T09:50:02;94546.84;;;5.24;56.51
85735;BME280;76179;42.316;22.856;2024-02-14T09:52:32;94570.00;;;5.15;56.08
85735;BME280;76179;42.316;22.856;2024-02-14T09:54:58;94567.34;;;5.00;57.06
85735;BME280;76179;42.316;22.856;2024-02-14T09:57:25;94564.66;;;5.00;56.98
85735;BME280;76179;42.316;22.856;2024-02-14T09:59:51;94570.38;;;5.17;56.41
85735;BME280;76179;42.316;22.856;2024-02-14T10:02:19;94553.50;;;4.95;57.07
85735;BME280;76179;42.316;22.856;2024-02-14T10:04:44;94572.38;;;5.02;57.80
85735;BME280;76179;42.316;22.856;2024-02-14T10:07:09;94554.63;;;4.97;58.32
85735;BME280;76179;42.316;22.856;2024-02-14T10:09:42;94567.34;;;5.08;57.54
85735;BME280;76179;42.316;22.856;2024-02-14T10:12:08;94572.78;;;4.86;59.28
85735;BME280;76179;42.316;22.856;2024-02-14T10:14:37;94585.09;;;4.98;60.95
85735;BME280;76179;42.316;22.856;2024-02-14T10:17:03;94575.09;;;4.95;57.52
85735;BME280;76179;42.316;22.856;2024-02-14T10:19:29;94573.47;;;5.12;60.41
85735;BME280;76179;42.316;22.856;2024-02-14T10:21:59;94560.72;;;5.26;59.80
85735;BME280;76179;42.316;22.856;2024-02-14T10:24:29;94567.22;;;5.36;58.25
85735;BME280;76179;42.316;22.856;2024-02-14T10:26:56;94553.75;;;5.32;55.14
85735;BME280;76179;42.316;22.856;2024-02-14T10:29:23;94572.91;;;5.52;56.96
85735;BME280;76179;42.316;22.856;2024-02-14T10:31:49;94559.81;;;5.54;54.31
85735;BME280;76179;42.316;22.856;2024-02-14T10:34:16;94553.25;;;5.55;54.54
85735;BME280;76179;42.316;22.856;2024-02-14T10:36:42;94539.03;;;5.48;53.86
85735;BME280;76179;42.316;22.856;2024-02-14T10:39:10;94545.88;;;5.59;53.52
85735;BME280;76179;42.316;22.856;2024-02-14T10:41:36;94536.19;;;5.65;52.90
85735;BME280;76179;42.316;22.856;2024-02-14T10:44:04;94538.09;;;5.72;53.52
85735;BME280;76179;42.316;22.856;2024-02-14T10:46:32;94539.31;;;5.60;52.35
85735;BME280;76179;42.316;22.856;2024-02-14T10:49:03;94537.84;;;5.49;53.55
85735;BME280;76179;42.316;22.856;2024-02-14T10:51:31;94538.63;;;5.49;51.75
85735;BME280;76179;42.316;22.856;2024-02-14T10:53:58;94531.66;;;5.55;53.69
85735;BME280;76179;42.316;22.856;2024-02-14T10:56:28;94535.47;;;5.61;52.49
85735;BME280;76179;42.316;22.856;2024-02-14T10:58:56;94538.16;;;5.61;52.90
85735;BME280;76179;42.316;22.856;2024-02-14T11:01:28;94533.16;;;5.60;51.14
85735;BME280;76179;42.316;22.856;2024-02-14T11:04:00;94527.25;;;5.75;52.48
85735;BME280;76179;42.316;22.856;2024-02-14T11:06:26;94528.41;;;5.78;52.25
85735;BME280;76179;42.316;22.856;2024-02-14T11:09:02;94516.47;;;5.75;52.19
85735;BME280;76179;42.316;22.856;2024-02-14T11:11:33;94504.22;;;5.64;51.15
85735;BME280;76179;42.316;22.856;2024-02-14T11:13:59;94508.34;;;5.79;51.48
85735;BME280;76179;42.316;22.856;2024-02-14T11:16:26;94516.41;;;5.82;52.89
85735;BME280;76179;42.316;22.856;2024-02-14T11:19:14;94521.47;;;5.73;51.40
85735;BME280;76179;42.316;22.856;2024-02-14T11:21:42;94514.84;;;5.85;52.01
85735;BME280;76179;42.316;22.856;2024-02-14T11:24:10;94519.91;;;5.79;52.89
85735;BME280;76179;42.316;22.856;2024-02-14T11:26:49;94521.09;;;5.75;51.96
85735;BME280;76179;42.316;22.856;2024-02-14T11:29:17;94523.47;;;5.66;50.95
85735;BME280;76179;42.316;22.856;2024-02-14T11:31:43;94524.50;;;5.82;52.83
85735;BME280;76179;42.316;22.856;2024-02-14T11:34:12;94511.06;;;5.79;51.45
85735;BME280;76179;42.316;22.856;2024-02-14T11:36:38;94518.75;;;5.80;51.74
85735;BME280;76179;42.316;22.856;2024-02-14T11:39:04;94524.88;;;5.85;53.07
85735;BME280;76179;42.316;22.856;2024-02-14T11:41:32;94518.31;;;5.89;51.34
85735;BME280;76179;42.316;22.856;2024-02-14T11:44:01;94483.28;;;5.78;51.85
85735;BME280;76179;42.316;22.856;2024-02-14T11:46:36;94525.22;;;5.97;51.63
85735;BME280;76179;42.316;22.856;2024-02-14T11:49:03;94516.19;;;6.14;50.81
85735;BME280;76179;42.316;22.856;2024-02-14T11:51:30;94522.34;;;6.18;52.16
85735;BME280;76179;42.316;22.856;2024-02-14T11:53:57;94529.66;;;6.22;50.56
85735;BME280;76179;42.316;22.856;2024-02-14T11:56:30;94524.63;;;6.24;50.97
85735;BME280;76179;42.316;22.856;2024-02-14T11:58:59;94512.31;;;6.19;50.59
85735;BME280;76179;42.316;22.856;2024-02-14T12:01:28;94511.81;;;6.28;50.83
85735;BME280;76179;42.316;22.856;2024-02-14T12:03:54;94504.03;;;6.37;50.55
85735;BME280;76179;42.316;22.856;2024-02-14T12:06:19;94521.34;;;6.43;50.97
85735;BME280;76179;42.316;22.856;2024-02-14T12:08:45;94509.34;;;6.47;49.61
85735;BME280;76179;42.316;22.856;2024-02-14T12:11:10;94521.84;;;6.72;50.49
85735;BME280;76179;42.316;22.856;2024-02-14T12:13:36;94520.38;;;6.64;51.44
85735;BME280;76179;42.316;22.856;2024-02-14T12:16:03;94533.84;;;6.71;51.02
85735;BME280;76179;42.316;22.856;2024-02-14T12:18:28;94530.97;;;6.85;49.42
85735;BME280;76179;42.316;22.856;2024-02-14T12:21:03;94521.03;;;6.75;50.59
85735;BME280;76179;42.316;22.856;2024-02-14T12:23:30;94525.97;;;6.83;49.87
85735;BME280;76179;42.316;22.856;2024-02-14T12:26:01;94520.91;;;6.89;49.58
85735;BME280;76179;42.316;22.856;2024-02-14T12:28:29;94493.41;;;6.56;49.28
85735;BME280;76179;42.316;22.856;2024-02-14T12:30:56;94520.81;;;6.58;50.32
85735;BME280;76179;42.316;22.856;2024-02-14T12:33:22;94518.59;;;6.50;50.89
85735;BME280;76179;42.316;22.856;2024-02-14T12:35:53;94527.06;;;6.52;51.26
85735;BME280;76179;42.316;22.856;2024-02-14T12:38:21;94520.47;;;6.56;50.46
85735;BME280;76179;42.316;22.856;2024-02-14T12:40:48;94510.41;;;6.57;51.24
85735;BME280;76179;42.316;22.856;2024-02-14T12:43:14;94508.50;;;6.54;50.77
85735;BME280;76179;42.316;22.856;2024-02-14T12:45:41;94506.97;;;6.53;50.92
85735;BME280;76179;42.316;22.856;2024-02-14T12:48:09;94513.03;;;6.64;49.79
85735;BME280;76179;42.316;22.856;2024-02-14T12:50:35;94501.94;;;6.55;50.13
85735;BME280;76179;42.316;22.856;2024-02-14T12:53:02;94485.00;;;6.47;51.34
85735;BME280;76179;42.316;22.856;2024-02-14T12:55:28;94512.22;;;6.67;50.66